sensor_id;sensor_type;location;lat;lon;timestamp;P1;P2;P0
26185;PMS7003;20067;48.764;9.176;2023-11-19T00:00:24;43.67;43.67;35.67
26185;PMS7003;20067;48.764;9.176;2023-11-19T00:02:51;48.67;48.33;37.00
26185;PMS7003;20067;48.764;9.176;2023-11-19T00:05:16;46.67;45.67;37.00
26185;PMS7003;20067;48.764;9.176;2023-11-19T00:07:42;50.33;49.00;39.00
26185;PMS7003;20067;48.764;9.176;2023-11-19T00:10:11;51.33;49.67;41.00
26185;PMS7003;20067;48.764;9.176;2023-11-19T00:12:45;51.67;50.00;40.00
26185;PMS7003;20067;48.764;9.176;2023-11-19T00:15:12;56.00;51.00;41.67
26185;PMS7003;20067;48.764;9.176;2023-11-19T00:17:38;56.33;52.67;44.00
26185;PMS7003;20067;48.764;9.176;2023-11-19T00:20:11;60.33;54.00;44.00
26185;PMS7003;20067;48.764;9.176;2023-11-19T00:22:38;63.33;55.33;44.67
26185;PMS7003;20067;48.764;9.176;2023-11-19T00:25:04;53.67;52.00;42.00
26185;PMS7003;20067;48.764;9.176;2023-11-19T00:27:30;61.00;55.00;43.00
26185;PMS7003;20067;48.764;9.176;2023-11-19T00:29:56;52.33;50.33;40.67
26185;PMS7003;20067;48.764;9.176;2023-11-19T00:32:22;50.33;48.33;39.00
26185;PMS7003;20067;48.764;9.176;2023-11-19T00:34:48;52.67;51.00;39.33
26185;PMS7003;20067;48.764;9.176;2023-11-19T00:37:15;56.00;51.33;42.00
26185;PMS7003;20067;48.764;9.176;2023-11-19T00:39:41;55.33;51.67;42.33
26185;PMS7003;20067;48.764;9.176;2023-11-19T00:42:07;54.00;51.00;42.00
26185;PMS7003;20067;48.764;9.176;2023-11-19T00:44:33;56.00;51.00;42.00
26185;PMS7003;20067;48.764;9.176;2023-11-19T00:46:58;59.00;52.33;43.33
26185;PMS7003;20067;48.764;9.176;2023-11-19T00:49:27;58.33;53.67;43.00
26185;PMS7003;20067;48.764;9.176;2023-11-19T00:51:53;58.33;53.67;43.00
26185;PMS7003;20067;48.764;9.176;2023-11-19T00:54:18;59.00;54.00;43.00
26185;PMS7003;20067;48.764;9.176;2023-11-19T00:56:44;57.00;53.00;43.00
26185;PMS7003;20067;48.764;9.176;2023-11-19T00:59:10;58.33;52.67;42.00
26185;PMS7003;20067;48.764;9.176;2023-11-19T01:01:35;55.67;52.33;43.33
26185;PMS7003;20067;48.764;9.176;2023-11-19T01:04:01;56.00;53.00;43.00
26185;PMS7003;20067;48.764;9.176;2023-11-19T01:06:27;57.67;53.00;43.67
26185;PMS7003;20067;48.764;9.176;2023-11-19T01:08:54;60.67;55.67;45.00
26185;PMS7003;20067;48.764;9.176;2023-11-19T01:11:21;54.67;51.33;43.00
26185;PMS7003;20067;48.764;9.176;2023-11-19T01:13:48;55.33;51.67;41.67
26185;PMS7003;20067;48.764;9.176;2023-11-19T01:16:14;51.67;50.33;41.00
26185;PMS7003;20067;48.764;9.176;2023-11-19T01:18:40;51.67;49.00;40.33
26185;PMS7003;20067;48.764;9.176;2023-11-19T01:21:06;48.33;47.00;38.67
26185;PMS7003;20067;48.764;9.176;2023-11-19T01:23:32;49.67;48.33;39.33
26185;PMS7003;20067;48.764;9.176;2023-11-19T01:25:58;50.33;48.33;41.00
26185;PMS7003;20067;48.764;9.176;2023-11-19T01:28:23;53.00;49.67;41.00
26185;PMS7003;20067;48.764;9.176;2023-11-19T01:30:52;48.67;47.00;37.33
26185;PMS7003;20067;48.764;9.176;2023-11-19T01:33:18;45.00;44.33;36.00
26185;PMS7003;20067;48.764;9.176;2023-11-19T01:35:44;42.00;42.00;35.00
26185;PMS7003;20067;48.764;9.176;2023-11-19T01:38:09;42.00;41.67;35.00
26185;PMS7003;20067;48.764;9.176;2023-11-19T01:40:35;45.67;45.67;36.67
26185;PMS7003;20067;48.764;9.176;2023-11-19T01:43:02;42.67;42.67;36.00
26185;PMS7003;20067;48.764;9.176;2023-11-19T01:45:29;45.33;45.33;37.00
26185;PMS7003;20067;48.764;9.176;2023-11-19T01:47:56;42.67;42.67;35.00
26185;PMS7003;20067;48.764;9.176;2023-11-19T01:50:22;41.33;41.33;34.67
26185;PMS7003;20067;48.764;9.176;2023-11-19T01:52:50;45.00;44.00;36.00
26185;PMS7003;20067;48.764;9.176;2023-11-19T01:55:19;39.75;39.75;34.00
26185;PMS7003;20067;48.764;9.176;2023-11-19T01:57:46;43.33;43.33;36.00
26185;PMS7003;20067;48.764;9.176;2023-11-19T02:00:14;48.33;47.33;37.67
26185;PMS7003;20067;48.764;9.176;2023-11-19T02:02:41;46.67;46.67;37.67
26185;PMS7003;20067;48.764;9.176;2023-11-19T02:05:08;49.00;47.00;39.00
26185;PMS7003;20067;48.764;9.176;2023-11-19T02:07:36;49.33;47.67;39.00
26185;PMS7003;20067;48.764;9.176;2023-11-19T02:10:01;45.00;45.00;38.00
26185;PMS7003;20067;48.764;9.176;2023-11-19T02:12:30;48.00;48.00;38.00
26185;PMS7003;20067;48.764;9.176;2023-11-19T02:14:59;47.33;47.00;38.33
26185;PMS7003;20067;48.764;9.176;2023-11-19T02:17:28;47.00;46.67;37.00
26185;PMS7003;20067;48.764;9.176;2023-11-19T02:19:59;49.00;48.00;39.33
26185;PMS7003;20067;48.764;9.176;2023-11-19T02:22:25;45.67;45.67;37.00
26185;PMS7003;20067;48.764;9.176;2023-11-19T02:24:51;40.67;40.67;34.67
26185;PMS7003;20067;48.764;9.176;2023-11-19T02:30:11;45.67;45.67;36.67
26185;PMS7003;20067;48.764;9.176;2023-11-19T02:32:40;47.33;46.00;38.33
26185;PMS7003;20067;48.764;9.176;2023-11-19T02:35:06;45.33;45.33;36.00
26185;PMS7003;20067;48.764;9.176;2023-11-19T02:37:33;46.00;45.33;36.00
26185;PMS7003;20067;48.764;9.176;2023-11-19T02:39:59;41.00;41.00;34.50
26185;PMS7003;20067;48.764;9.176;2023-11-19T02:42:28;49.33;46.33;38.33
26185;PMS7003;20067;48.764;9.176;2023-11-19T02:44:54;42.75;42.75;35.25
26185;PMS7003;20067;48.764;9.176;2023-11-19T02:47:19;41.50;41.50;34.50
26185;PMS7003;20067;48.764;9.176;2023-11-19T02:49:46;41.00;41.00;35.00
26185;PMS7003;20067;48.764;9.176;2023-11-19T02:52:12;41.00;41.00;35.00
26185;PMS7003;20067;48.764;9.176;2023-11-19T02:54:39;43.25;42.50;35.25
26185;PMS7003;20067;48.764;9.176;2023-11-19T02:57:06;39.50;38.50;33.00
26185;PMS7003;20067;48.764;9.176;2023-11-19T02:59:33;44.00;44.00;35.33
26185;PMS7003;20067;48.764;9.176;2023-11-19T03:02:04;40.75;40.75;34.75
26185;PMS7003;20067;48.764;9.176;2023-11-19T03:04:32;39.25;39.25;33.00
26185;PMS7003;20067;48.764;9.176;2023-11-19T03:06:58;41.33;41.33;34.33
26185;PMS7003;20067;48.764;9.176;2023-11-19T03:09:24;39.67;39.67;33.00
26185;PMS7003;20067;48.764;9.176;2023-11-19T03:11:50;42.33;41.67;35.00
26185;PMS7003;20067;48.764;9.176;2023-11-19T03:14:15;35.50;35.50;30.75
26185;PMS7003;20067;48.764;9.176;2023-11-19T03:16:44;42.00;42.00;35.00
26185;PMS7003;20067;48.764;9.176;2023-11-19T03:19:11;39.67;39.67;33.67
26185;PMS7003;20067;48.764;9.176;2023-11-19T03:21:37;40.33;40.33;34.33
26185;PMS7003;20067;48.764;9.176;2023-11-19T03:24:02;39.67;39.67;33.67
26185;PMS7003;20067;48.764;9.176;2023-11-19T03:26:28;41.00;41.00;35.00
26185;PMS7003;20067;48.764;9.176;2023-11-19T03:28:54;41.50;41.00;34.75
26185;PMS7003;20067;48.764;9.176;2023-11-19T03:31:21;35.50;35.50;31.25
26185;PMS7003;20067;48.764;9.176;2023-11-19T03:33:47;40.50;40.50;34.00
26185;PMS7003;20067;48.764;9.176;2023-11-19T03:36:13;37.75;37.75;33.00
26185;PMS7003;20067;48.764;9.176;2023-11-19T03:38:39;39.00;39.00;33.00
26185;PMS7003;20067;48.764;9.176;2023-11-19T03:41:11;36.00;36.00;31.00
26185;PMS7003;20067;48.764;9.176;2023-11-19T03:43:37;41.25;41.25;34.50
26185;PMS7003;20067;48.764;9.176;2023-11-19T03:46:03;43.33;43.33;35.33
26185;PMS7003;20067;48.764;9.176;2023-11-19T03:48:30;47.00;45.33;38.00
26185;PMS7003;20067;48.764;9.176;2023-11-19T03:50:56;44.00;44.00;36.00
26185;PMS7003;20067;48.764;9.176;2023-11-19T03:53:22;44.33;44.33;36.00
26185;PMS7003;20067;48.764;9.176;2023-11-19T03:55:49;45.67;44.67;36.00
26185;PMS7003;20067;48.764;9.176;2023-11-19T03:58:15;48.00;46.00;38.00
26185;PMS7003;20067;48.764;9.176;2023-11-19T04:00:40;47.33;45.67;38.33
26185;PMS7003;20067;48.764;9.176;2023-11-19T04:03:06;40.00;40.00;34.00
26185;PMS7003;20067;48.764;9.176;2023-11-19T04:05:31;44.00;44.00;36.00
26185;PMS7003;20067;48.764;9.176;2023-11-19T04:07:57;45.75;45.50;36.50
26185;PMS7003;20067;48.764;9.176;2023-11-19T04:10:23;51.33;49.00;40.33
26185;PMS7003;20067;48.764;9.176;2023-11-19T04:12:49;48.67;46.33;38.67
26185;PMS7003;20067;48.764;9.176;2023-11-19T04:15:14;42.00;42.00;35.00
26185;PMS7003;20067;48.764;9.176;2023-11-19T04:17:40;43.33;43.33;35.67
26185;PMS7003;20067;48.764;9.176;2023-11-19T04:20:06;49.33;47.67;38.33
26185;PMS7003;20067;48.764;9.176;2023-11-19T04:22:38;45.33;45.00;36.33
26185;PMS7003;20067;48.764;9.176;2023-11-19T04:25:03;45.00;45.00;35.67
26185;PMS7003;20067;48.764;9.176;2023-11-19T04:27:29;44.67;44.67;37.00
26185;PMS7003;20067;48.764;9.176;2023-11-19T04:29:55;45.00;45.00;37.00
26185;PMS7003;20067;48.764;9.176;2023-11-19T04:32:21;41.67;41.67;35.00
26185;PMS7003;20067;48.764;9.176;2023-11-19T04:34:46;40.25;40.25;34.25
26185;PMS7003;20067;48.764;9.176;2023-11-19T04:37:12;44.50;44.50;36.50
26185;PMS7003;20067;48.764;9.176;2023-11-19T04:39:38;41.75;41.75;35.00
26185;PMS7003;20067;48.764;9.176;2023-11-19T04:42:03;41.00;41.00;35.00
26185;PMS7003;20067;48.764;9.176;2023-11-19T04:44:29;42.00;42.00;35.00
26185;PMS7003;20067;48.764;9.176;2023-11-19T04:46:55;40.00;40.00;34.00
26185;PMS7003;20067;48.764;9.176;2023-11-19T04:49:21;43.33;43.33;35.33
26185;PMS7003;20067;48.764;9.176;2023-11-19T04:51:47;40.00;40.00;34.00
26185;PMS7003;20067;48.764;9.176;2023-11-19T04:54:12;42.75;42.75;35.50
26185;PMS7003;20067;48.764;9.176;2023-11-19T04:56:39;43.00;43.00;35.67
26185;PMS7003;20067;48.764;9.176;2023-11-19T04:59:04;40.50;40.50;34.00
26185;PMS7003;20067;48.764;9.176;2023-11-19T05:01:31;43.33;43.33;35.33
26185;PMS7003;20067;48.764;9.176;2023-11-19T05:03:58;37.00;37.00;32.75
26185;PMS7003;20067;48.764;9.176;2023-11-19T05:06:25;39.67;39.67;33.33
26185;PMS7003;20067;48.764;9.176;2023-11-19T05:08:53;39.50;39.50;33.50
26185;PMS7003;20067;48.764;9.176;2023-11-19T05:11:19;45.50;44.50;36.00
26185;PMS7003;20067;48.764;9.176;2023-11-19T05:13:45;40.67;40.67;34.00
26185;PMS7003;20067;48.764;9.176;2023-11-19T05:16:10;41.67;41.67;34.00
26185;PMS7003;20067;48.764;9.176;2023-11-19T05:18:39;39.25;39.25;33.25
26185;PMS7003;20067;48.764;9.176;2023-11-19T05:21:05;41.50;41.50;34.00
26185;PMS7003;20067;48.764;9.176;2023-11-19T05:23:30;40.00;40.00;34.00
26185;PMS7003;20067;48.764;9.176;2023-11-19T05:25:56;36.75;36.75;32.00
26185;PMS7003;20067;48.764;9.176;2023-11-19T05:28:23;38.75;38.75;32.75
26185;PMS7003;20067;48.764;9.176;2023-11-19T05:30:49;43.33;43.33;35.33
26185;PMS7003;20067;48.764;9.176;2023-11-19T05:33:15;38.50;37.00;32.75
26185;PMS7003;20067;48.764;9.176;2023-11-19T05:35:40;40.00;40.00;34.00
26185;PMS7003;20067;48.764;9.176;2023-11-19T05:38:06;43.00;42.00;34.00
26185;PMS7003;20067;48.764;9.176;2023-11-19T05:40:32;42.75;42.75;35.25
26185;PMS7003;20067;48.764;9.176;2023-11-19T05:42:57;43.67;43.67;34.67
26185;PMS7003;20067;48.764;9.176;2023-11-19T05:45:23;41.67;41.67;34.67
26185;PMS7003;20067;48.764;9.176;2023-11-19T05:47:49;45.67;45.00;36.67
26185;PMS7003;20067;48.764;9.176;2023-11-19T05:50:14;40.00;40.00;33.50
26185;PMS7003;20067;48.764;9.176;2023-11-19T05:52:40;40.00;40.00;33.50
26185;PMS7003;20067;48.764;9.176;2023-11-19T05:55:05;37.00;37.00;32.00
26185;PMS7003;20067;48.764;9.176;2023-11-19T05:57:35;39.00;39.00;33.00
26185;PMS7003;20067;48.764;9.176;2023-11-19T06:00:04;39.00;39.00;33.00
26185;PMS7003;20067;48.764;9.176;2023-11-19T06:02:35;40.33;40.33;33.67
26185;PMS7003;20067;48.764;9.176;2023-11-19T06:05:02;42.75;42.75;35.00
26185;PMS7003;20067;48.764;9.176;2023-11-19T06:07:30;42.67;42.67;34.00
26185;PMS7003;20067;48.764;9.176;2023-11-19T06:09:56;43.25;43.25;35.50
26185;PMS7003;20067;48.764;9.176;2023-11-19T06:12:21;43.33;43.33;36.00
26185;PMS7003;20067;48.764;9.176;2023-11-19T06:14:47;43.33;43.33;35.33
26185;PMS7003;20067;48.764;9.176;2023-11-19T06:17:13;44.00;44.00;35.75
26185;PMS7003;20067;48.764;9.176;2023-11-19T06:19:38;46.00;45.33;37.00
26185;PMS7003;20067;48.764;9.176;2023-11-19T06:22:04;41.75;41.75;34.25
26185;PMS7003;20067;48.764;9.176;2023-11-19T06:24:30;43.25;43.25;35.75
26185;PMS7003;20067;48.764;9.176;2023-11-19T06:26:55;45.33;45.00;36.33
26185;PMS7003;20067;48.764;9.176;2023-11-19T06:29:21;39.00;39.00;33.00
26185;PMS7003;20067;48.764;9.176;2023-11-19T06:31:46;40.67;40.67;34.00
26185;PMS7003;20067;48.764;9.176;2023-11-19T06:34:15;44.33;44.33;36.00
26185;PMS7003;20067;48.764;9.176;2023-11-19T06:36:41;41.00;41.00;33.67
26185;PMS7003;20067;48.764;9.176;2023-11-19T06:39:08;44.67;44.00;35.33
26185;PMS7003;20067;48.764;9.176;2023-11-19T06:41:34;42.67;42.67;35.00
26185;PMS7003;20067;48.764;9.176;2023-11-19T06:44:00;41.00;41.00;34.00
26185;PMS7003;20067;48.764;9.176;2023-11-19T06:46:25;46.00;45.00;36.67
26185;PMS7003;20067;48.764;9.176;2023-11-19T06:48:51;43.00;43.00;36.00
26185;PMS7003;20067;48.764;9.176;2023-11-19T06:51:16;47.00;45.00;37.67
26185;PMS7003;20067;48.764;9.176;2023-11-19T06:53:42;45.67;45.00;36.67
26185;PMS7003;20067;48.764;9.176;2023-11-19T06:56:22;46.33;45.00;37.33
26185;PMS7003;20067;48.764;9.176;2023-11-19T06:58:49;46.33;45.33;37.33
26185;PMS7003;20067;48.764;9.176;2023-11-19T07:01:15;45.00;44.33;36.00
26185;PMS7003;20067;48.764;9.176;2023-11-19T07:03:43;44.00;44.00;36.00
26185;PMS7003;20067;48.764;9.176;2023-11-19T07:06:11;43.33;43.33;35.33
26185;PMS7003;20067;48.764;9.176;2023-11-19T07:08:42;44.50;42.75;35.00
26185;PMS7003;20067;48.764;9.176;2023-11-19T07:11:09;43.33;43.33;35.33
26185;PMS7003;20067;48.764;9.176;2023-11-19T07:13:36;44.67;44.67;36.00
26185;PMS7003;20067;48.764;9.176;2023-11-19T07:16:02;39.75;39.75;33.75
26185;PMS7003;20067;48.764;9.176;2023-11-19T07:18:29;45.00;44.67;36.67
26185;PMS7003;20067;48.764;9.176;2023-11-19T07:20:54;43.25;43.25;35.25
26185;PMS7003;20067;48.764;9.176;2023-11-19T07:23:20;45.67;45.00;36.67
26185;PMS7003;20067;48.764;9.176;2023-11-19T07:25:46;45.67;45.00;36.33
26185;PMS7003;20067;48.764;9.176;2023-11-19T07:28:12;43.00;43.00;34.67
26185;PMS7003;20067;48.764;9.176;2023-11-19T07:30:39;43.00;43.00;35.67
26185;PMS7003;20067;48.764;9.176;2023-11-19T07:33:05;43.75;43.75;35.75
26185;PMS7003;20067;48.764;9.176;2023-11-19T07:35:31;45.33;45.00;36.33
26185;PMS7003;20067;48.764;9.176;2023-11-19T07:37:57;43.00;43.00;35.33
26185;PMS7003;20067;48.764;9.176;2023-11-19T07:40:23;42.00;42.00;34.00
26185;PMS7003;20067;48.764;9.176;2023-11-19T07:42:49;41.75;41.75;34.00
26185;PMS7003;20067;48.764;9.176;2023-11-19T07:45:15;43.25;42.50;34.25
26185;PMS7003;20067;48.764;9.176;2023-11-19T07:47:41;42.25;41.00;34.00
26185;PMS7003;20067;48.764;9.176;2023-11-19T07:50:09;45.50;44.00;35.00
26185;PMS7003;20067;48.764;9.176;2023-11-19T07:52:36;42.75;42.75;34.00
26185;PMS7003;20067;48.764;9.176;2023-11-19T07:55:02;41.50;41.50;33.75
26185;PMS7003;20067;48.764;9.176;2023-11-19T07:57:28;39.75;39.00;32.50
26185;PMS7003;20067;48.764;9.176;2023-11-19T07:59:56;42.75;42.75;35.00
26185;PMS7003;20067;48.764;9.176;2023-11-19T08:02:26;38.00;38.00;32.00
26185;PMS7003;20067;48.764;9.176;2023-11-19T08:04:52;42.25;42.25;34.25
26185;PMS7003;20067;48.764;9.176;2023-11-19T08:07:19;41.50;40.00;33.00
26185;PMS7003;20067;48.764;9.176;2023-11-19T08:09:46;41.00;41.00;33.75
26185;PMS7003;20067;48.764;9.176;2023-11-19T08:12:12;34.75;34.75;30.00
26185;PMS7003;20067;48.764;9.176;2023-11-19T08:14:39;35.00;35.00;30.00
26185;PMS7003;20067;48.764;9.176;2023-11-19T08:17:05;36.75;36.50;31.50
26185;PMS7003;20067;48.764;9.176;2023-11-19T08:19:31;41.00;39.25;32.50
26185;PMS7003;20067;48.764;9.176;2023-11-19T08:21:57;33.75;33.75;29.00
26185;PMS7003;20067;48.764;9.176;2023-11-19T08:24:22;34.00;34.00;29.00
26185;PMS7003;20067;48.764;9.176;2023-11-19T08:26:48;35.00;35.00;30.75
26185;PMS7003;20067;48.764;9.176;2023-11-19T08:29:14;30.00;30.00;27.00
26185;PMS7003;20067;48.764;9.176;2023-11-19T08:31:39;25.00;25.00;21.75
26185;PMS7003;20067;48.764;9.176;2023-11-19T08:34:05;27.25;27.25;24.50
26185;PMS7003;20067;48.764;9.176;2023-11-19T08:36:33;26.50;26.50;23.50
26185;PMS7003;20067;48.764;9.176;2023-11-19T08:38:59;23.25;23.25;20.25
26185;PMS7003;20067;48.764;9.176;2023-11-19T08:41:25;25.75;25.00;22.25
26185;PMS7003;20067;48.764;9.176;2023-11-19T08:43:52;24.00;24.00;21.00
26185;PMS7003;20067;48.764;9.176;2023-11-19T08:46:17;20.00;20.00;17.00
26185;PMS7003;20067;48.764;9.176;2023-11-19T08:48:43;26.50;26.50;23.25
26185;PMS7003;20067;48.764;9.176;2023-11-19T08:51:09;24.00;24.00;21.50
26185;PMS7003;20067;48.764;9.176;2023-11-19T08:53:34;24.00;24.00;20.50
26185;PMS7003;20067;48.764;9.176;2023-11-19T08:56:00;24.25;23.00;20.00
26185;PMS7003;20067;48.764;9.176;2023-11-19T08:58:27;29.00;29.00;26.00
26185;PMS7003;20067;48.764;9.176;2023-11-19T09:00:53;25.75;25.75;23.00
26185;PMS7003;20067;48.764;9.176;2023-11-19T09:03:19;27.00;27.00;24.00
26185;PMS7003;20067;48.764;9.176;2023-11-19T09:05:45;25.25;25.25;22.25
26185;PMS7003;20067;48.764;9.176;2023-11-19T09:08:11;17.25;17.25;14.00
26185;PMS7003;20067;48.764;9.176;2023-11-19T09:10:37;22.00;22.00;19.50
26185;PMS7003;20067;48.764;9.176;2023-11-19T09:13:02;16.25;16.25;11.75
26185;PMS7003;20067;48.764;9.176;2023-11-19T09:15:28;13.50;13.50;9.25
26185;PMS7003;20067;48.764;9.176;2023-11-19T09:17:54;12.00;12.00;9.00
26185;PMS7003;20067;48.764;9.176;2023-11-19T09:20:21;10.25;10.25;6.75
26185;PMS7003;20067;48.764;9.176;2023-11-19T09:22:46;8.00;8.00;5.00
26185;PMS7003;20067;48.764;9.176;2023-11-19T09:25:12;9.00;9.00;6.00
26185;PMS7003;20067;48.764;9.176;2023-11-19T09:27:41;10.00;9.50;6.00
26185;PMS7003;20067;48.764;9.176;2023-11-19T09:30:08;11.00;11.00;7.75
26185;PMS7003;20067;48.764;9.176;2023-11-19T09:32:34;12.50;12.50;9.50
26185;PMS7003;20067;48.764;9.176;2023-11-19T09:35:00;11.50;11.50;8.50
26185;PMS7003;20067;48.764;9.176;2023-11-19T09:37:25;13.50;13.50;10.50
26185;PMS7003;20067;48.764;9.176;2023-11-19T09:39:51;9.00;9.00;6.00
26185;PMS7003;20067;48.764;9.176;2023-11-19T09:42:18;8.50;8.50;5.00
26185;PMS7003;20067;48.764;9.176;2023-11-19T09:44:44;8.75;8.75;6.00
26185;PMS7003;20067;48.764;9.176;2023-11-19T09:47:11;9.00;9.00;7.00
26185;PMS7003;20067;48.764;9.176;2023-11-19T09:49:39;8.50;8.50;5.00
26185;PMS7003;20067;48.764;9.176;2023-11-19T09:52:05;6.00;6.00;4.00
26185;PMS7003;20067;48.764;9.176;2023-11-19T09:54:31;5.25;5.25;2.00
26185;PMS7003;20067;48.764;9.176;2023-11-19T09:56:57;5.25;5.25;2.50
26185;PMS7003;20067;48.764;9.176;2023-11-19T09:59:27;4.00;4.00;1.00
26185;PMS7003;20067;48.764;9.176;2023-11-19T10:01:54;4.00;4.00;1.00
26185;PMS7003;20067;48.764;9.176;2023-11-19T10:04:21;5.25;5.25;2.00
26185;PMS7003;20067;48.764;9.176;2023-11-19T10:06:48;5.25;5.00;1.50
26185;PMS7003;20067;48.764;9.176;2023-11-19T10:09:15;2.25;2.25;0.00
26185;PMS7003;20067;48.764;9.176;2023-11-19T10:11:40;4.25;4.25;1.00
26185;PMS7003;20067;48.764;9.176;2023-11-19T10:14:06;4.00;4.00;1.00
26185;PMS7003;20067;48.764;9.176;2023-11-19T10:16:34;4.00;4.00;1.00
26185;PMS7003;20067;48.764;9.176;2023-11-19T10:18:59;5.25;5.25;2.00
26185;PMS7003;20067;48.764;9.176;2023-11-19T10:21:25;6.00;5.00;1.50
26185;PMS7003;20067;48.764;9.176;2023-11-19T10:23:53;4.00;4.00;1.00
26185;PMS7003;20067;48.764;9.176;2023-11-19T10:26:22;4.50;4.50;1.25
26185;PMS7003;20067;48.764;9.176;2023-11-19T10:28:48;5.00;5.00;1.00
26185;PMS7003;20067;48.764;9.176;2023-11-19T10:31:14;5.00;5.00;1.00
26185;PMS7003;20067;48.764;9.176;2023-11-19T10:33:41;4.00;4.00;1.00
26185;PMS7003;20067;48.764;9.176;2023-11-19T10:36:09;5.00;5.00;2.00
26185;PMS7003;20067;48.764;9.176;2023-11-19T10:38:37;5.00;5.00;2.00
26185;PMS7003;20067;48.764;9.176;2023-11-19T10:41:03;6.00;6.00;2.00
26185;PMS7003;20067;48.764;9.176;2023-11-19T10:43:30;6.00;6.00;2.25
26185;PMS7003;20067;48.764;9.176;2023-11-19T10:46:09;5.00;5.00;1.00
26185;PMS7003;20067;48.764;9.176;2023-11-19T10:48:38;8.75;7.00;3.00
26185;PMS7003;20067;48.764;9.176;2023-11-19T10:51:05;2.00;2.00;0.00
26185;PMS7003;20067;48.764;9.176;2023-11-19T10:53:33;3.00;3.00;1.00
26185;PMS7003;20067;48.764;9.176;2023-11-19T10:56:02;2.00;2.00;0.00
26185;PMS7003;20067;48.764;9.176;2023-11-19T10:58:33;2.00;2.00;0.00
26185;PMS7003;20067;48.764;9.176;2023-11-19T11:01:03;5.00;3.00;0.00
26185;PMS7003;20067;48.764;9.176;2023-11-19T11:03:40;3.00;3.00;0.00
26185;PMS7003;20067;48.764;9.176;2023-11-19T11:06:08;3.00;3.00;0.00
26185;PMS7003;20067;48.764;9.176;2023-11-19T11:08:36;2.00;2.00;0.00
26185;PMS7003;20067;48.764;9.176;2023-11-19T11:11:04;2.00;2.00;0.00
26185;PMS7003;20067;48.764;9.176;2023-11-19T11:13:31;3.00;2.00;0.00
26185;PMS7003;20067;48.764;9.176;2023-11-19T11:15:57;3.00;2.00;0.00
26185;PMS7003;20067;48.764;9.176;2023-11-19T11:18:23;2.00;2.00;0.00
26185;PMS7003;20067;48.764;9.176;2023-11-19T11:20:51;4.50;3.00;0.00
26185;PMS7003;20067;48.764;9.176;2023-11-19T11:32:34;2.00;2.00;0.00
26185;PMS7003;20067;48.764;9.176;2023-11-19T11:35:28;2.25;2.25;0.00
26185;PMS7003;20067;48.764;9.176;2023-11-19T11:38:08;2.00;2.00;0.00
26185;PMS7003;20067;48.764;9.176;2023-11-19T11:40:34;2.00;2.00;0.00
26185;PMS7003;20067;48.764;9.176;2023-11-19T11:43:01;2.00;2.00;0.00
26185;PMS7003;20067;48.764;9.176;2023-11-19T11:45:37;2.00;2.00;0.00
26185;PMS7003;20067;48.764;9.176;2023-11-19T11:48:17;2.00;2.00;0.00
26185;PMS7003;20067;48.764;9.176;2023-11-19T11:50:47;2.00;2.00;0.00
26185;PMS7003;20067;48.764;9.176;2023-11-19T11:53:17;5.00;3.00;0.00
26185;PMS7003;20067;48.764;9.176;2023-11-19T11:58:13;4.75;2.00;0.00
26185;PMS7003;20067;48.764;9.176;2023-11-19T12:00:42;2.00;2.00;0.00
26185;PMS7003;20067;48.764;9.176;2023-11-19T12:03:08;3.00;2.00;0.00
26185;PMS7003;20067;48.764;9.176;2023-11-19T12:05:44;2.00;2.00;0.00
26185;PMS7003;20067;48.764;9.176;2023-11-19T12:08:10;2.00;2.00;0.00
26185;PMS7003;20067;48.764;9.176;2023-11-19T12:10:55;2.25;2.00;0.00
26185;PMS7003;20067;48.764;9.176;2023-11-19T12:13:29;4.00;4.00;0.50
26185;PMS7003;20067;48.764;9.176;2023-11-19T12:16:16;3.50;3.50;0.00
26185;PMS7003;20067;48.764;9.176;2023-11-19T12:18:41;2.00;2.00;0.00
26185;PMS7003;20067;48.764;9.176;2023-11-19T12:21:07;2.00;2.00;0.00
26185;PMS7003;20067;48.764;9.176;2023-11-19T12:23:35;2.00;2.00;0.00
26185;PMS7003;20067;48.764;9.176;2023-11-19T12:26:15;2.00;2.00;0.00
26185;PMS7003;20067;48.764;9.176;2023-11-19T12:28:58;4.00;4.00;1.00
26185;PMS7003;20067;48.764;9.176;2023-11-19T12:31:25;4.00;4.00;1.00
26185;PMS7003;20067;48.764;9.176;2023-11-19T12:33:51;2.50;2.50;0.00
26185;PMS7003;20067;48.764;9.176;2023-11-19T12:36:17;3.00;2.00;0.00
26185;PMS7003;20067;48.764;9.176;2023-11-19T12:38:43;2.00;2.00;0.00
26185;PMS7003;20067;48.764;9.176;2023-11-19T12:41:10;2.00;2.00;0.00
26185;PMS7003;20067;48.764;9.176;2023-11-19T12:43:37;2.00;2.00;0.00
26185;PMS7003;20067;48.764;9.176;2023-11-19T12:46:16;4.00;2.00;0.00
26185;PMS7003;20067;48.764;9.176;2023-11-19T12:48:48;2.00;2.00;0.00
26185;PMS7003;20067;48.764;9.176;2023-11-19T12:51:14;2.00;2.00;0.00
26185;PMS7003;20067;48.764;9.176;2023-11-19T12:53:50;3.75;2.00;0.00
26185;PMS7003;20067;48.764;9.176;2023-11-19T12:56:21;2.00;2.00;0.00
26185;PMS7003;20067;48.764;9.176;2023-11-19T12:58:47;2.00;2.00;0.00
26185;PMS7003;20067;48.764;9.176;2023-11-19T13:01:17;3.50;3.50;0.00
26185;PMS7003;20067;48.764;9.176;2023-11-19T13:03:44;2.00;2.00;0.00
26185;PMS7003;20067;48.764;9.176;2023-11-19T13:06:11;2.00;2.00;0.00
26185;PMS7003;20067;48.764;9.176;2023-11-19T13:08:45;2.00;2.00;0.00
26185;PMS7003;20067;48.764;9.176;2023-11-19T13:11:13;2.00;2.00;0.00
26185;PMS7003;20067;48.764;9.176;2023-11-19T13:16:29;2.00;2.00;0.00
26185;PMS7003;20067;48.764;9.176;2023-11-19T13:18:55;2.00;2.00;0.00
26185;PMS7003;20067;48.764;9.176;2023-11-19T13:21:22;2.00;2.00;0.00
26185;PMS7003;20067;48.764;9.176;2023-11-19T13:23:47;2.00;2.00;0.00
26185;PMS7003;20067;48.764;9.176;2023-11-19T13:26:13;3.00;2.00;0.00
26185;PMS7003;20067;48.764;9.176;2023-11-19T13:28:39;2.00;2.00;0.00
26185;PMS7003;20067;48.764;9.176;2023-11-19T13:31:04;3.50;2.00;0.00
26185;PMS7003;20067;48.764;9.176;2023-11-19T13:33:30;5.00;2.00;0.00
26185;PMS7003;20067;48.764;9.176;2023-11-19T13:35:56;3.00;2.00;0.00
26185;PMS7003;20067;48.764;9.176;2023-11-19T13:38:22;2.00;2.00;0.00
26185;PMS7003;20067;48.764;9.176;2023-11-19T13:40:49;2.00;2.00;0.00
26185;PMS7003;20067;48.764;9.176;2023-11-19T13:43:15;3.80;3.80;0.00
26185;PMS7003;20067;48.764;9.176;2023-11-19T13:45:41;4.00;4.00;0.00
26185;PMS7003;20067;48.764;9.176;2023-11-19T13:48:06;2.00;2.00;0.00
26185;PMS7003;20067;48.764;9.176;2023-11-19T13:50:32;2.00;2.00;0.00
26185;PMS7003;20067;48.764;9.176;2023-11-19T13:52:59;2.00;2.00;0.00
26185;PMS7003;20067;48.764;9.176;2023-11-19T13:55:25;2.00;2.00;0.00
26185;PMS7003;20067;48.764;9.176;2023-11-19T13:57:50;2.00;2.00;0.00
26185;PMS7003;20067;48.764;9.176;2023-11-19T14:00:16;2.00;2.00;0.00
26185;PMS7003;20067;48.764;9.176;2023-11-19T14:02:43;2.00;2.00;0.00
26185;PMS7003;20067;48.764;9.176;2023-11-19T14:05:12;3.50;3.50;0.00
26185;PMS7003;20067;48.764;9.176;2023-11-19T14:07:40;2.00;2.00;0.00
26185;PMS7003;20067;48.764;9.176;2023-11-19T14:10:06;2.50;2.50;0.00
26185;PMS7003;20067;48.764;9.176;2023-11-19T14:12:39;4.75;2.00;0.00